createdAt,value
2018-07-28T00:00:06.972Z,29.20
2018-07-28T00:02:39.222Z,29.20
2018-07-28T00:05:12.050Z,29.20
2018-07-28T00:07:44.187Z,29.40
2018-07-28T00:10:16.851Z,29.40
2018-07-28T00:12:49.350Z,29.40
2018-07-28T00:15:22.006Z,29.60
2018-07-28T00:17:54.455Z,29.60
2018-07-28T00:20:27.847Z,29.60
2018-07-28T00:23:00.477Z,29.70
2018-07-28T00:25:42.879Z,29.80
2018-07-28T00:28:16.025Z,29.90
2018-07-28T00:30:48.110Z,29.90
2018-07-28T00:33:20.569Z,30.00
2018-07-28T00:35:52.937Z,30.00
2018-07-28T00:38:25.381Z,30.00
2018-07-28T00:40:57.839Z,30.00
2018-07-28T00:43:29.852Z,30.10
2018-07-28T00:46:01.860Z,30.10
2018-07-28T00:48:33.872Z,30.20
2018-07-28T00:51:06.538Z,30.30
2018-07-28T00:53:38.892Z,30.30
2018-07-28T00:56:11.095Z,30.40
2018-07-28T00:58:43.193Z,30.40
2018-07-28T01:01:15.643Z,30.40
2018-07-28T01:03:47.620Z,30.50
2018-07-28T01:06:19.612Z,30.60
2018-07-28T01:08:52.139Z,30.70
2018-07-28T01:11:24.125Z,31.00
2018-07-28T01:13:56.493Z,31.10
2018-07-28T01:16:28.595Z,31.10
2018-07-28T01:19:00.753Z,31.00
2018-07-28T01:21:32.829Z,31.10
2018-07-28T01:24:05.073Z,31.20
2018-07-28T01:26:37.157Z,31.50
2018-07-28T01:29:14.705Z,31.60
2018-07-28T01:31:49.165Z,31.60
2018-07-28T01:34:21.221Z,31.70
2018-07-28T01:36:53.490Z,31.80
2018-07-28T01:39:25.646Z,32.00
2018-07-28T01:41:58.001Z,32.00
2018-07-28T01:44:30.376Z,32.10
2018-07-28T01:47:02.509Z,32.00
2018-07-28T01:49:34.217Z,32.20
2018-07-28T01:52:06.518Z,32.20
2018-07-28T01:54:37.994Z,32.30
2018-07-28T01:57:09.822Z,32.40
2018-07-28T01:59:41.867Z,32.60
2018-07-28T02:02:14.278Z,32.70
2018-07-28T02:04:46.336Z,32.80
2018-07-28T02:07:18.261Z,32.80
2018-07-28T02:09:49.886Z,32.80
2018-07-28T02:12:21.498Z,32.90
2018-07-28T02:14:53.206Z,32.40
2018-07-28T02:17:24.984Z,33.10
2018-07-28T02:19:56.495Z,33.30
2018-07-28T02:22:29.403Z,33.30
2018-07-28T02:25:01.057Z,33.40
2018-07-28T02:27:32.575Z,33.40
2018-07-28T02:30:05.135Z,33.50
2018-07-28T02:32:37.591Z,33.70
2018-07-28T02:35:09.399Z,33.70
2018-07-28T02:37:41.272Z,33.80
2018-07-28T02:40:12.909Z,33.90
2018-07-28T02:42:47.992Z,33.90
2018-07-28T02:47:51.089Z,34.10
2018-07-28T02:50:22.683Z,34.20
2018-07-28T02:52:54.802Z,34.40
2018-07-28T02:55:27.156Z,34.50
2018-07-28T02:57:58.632Z,34.60
2018-07-28T03:00:30.474Z,34.70
2018-07-28T03:03:02.631Z,34.80
2018-07-28T03:05:34.705Z,35.10
2018-07-28T03:08:07.241Z,35.30
2018-07-28T03:10:38.974Z,36.10
2018-07-28T03:13:10.789Z,35.60
2018-07-28T03:15:42.676Z,35.70
2018-07-28T03:20:45.273Z,36.40
2018-07-28T03:23:16.937Z,36.60
2018-07-28T03:25:48.213Z,36.90
2018-07-28T03:28:19.771Z,36.90
2018-07-28T03:30:51.655Z,37.20
2018-07-28T03:33:24.746Z,37.30
2018-07-28T03:35:56.335Z,37.60
2018-07-28T03:38:27.799Z,37.60
2018-07-28T03:40:59.944Z,37.70
2018-07-28T03:43:31.833Z,37.90
2018-07-28T03:46:03.425Z,38.20
2018-07-28T03:48:35.326Z,39.00
2018-07-28T03:51:07.527Z,38.40
2018-07-28T03:53:39.135Z,38.50
2018-07-28T03:56:10.712Z,38.70
2018-07-28T03:58:42.262Z,38.90
2018-07-28T04:01:14.037Z,39.10
2018-07-28T04:03:45.825Z,39.20
2018-07-28T04:06:17.336Z,39.30
2018-07-28T04:08:48.773Z,40.20
2018-07-28T04:11:20.767Z,39.70
2018-07-28T04:13:52.330Z,39.90
2018-07-28T04:16:23.833Z,39.90
2018-07-28T04:18:55.728Z,40.10
2018-07-28T04:21:27.252Z,40.40
2018-07-28T04:23:58.750Z,40.60
2018-07-28T04:26:30.521Z,40.70
2018-07-28T04:29:02.247Z,40.70
2018-07-28T04:31:33.872Z,40.90
2018-07-28T04:34:05.432Z,41.00
2018-07-28T04:36:37.086Z,41.20
2018-07-28T04:39:12.240Z,41.30
2018-07-28T04:41:43.917Z,41.50
2018-07-28T04:44:15.661Z,41.70
2018-07-28T04:46:47.464Z,41.60
2018-07-28T04:49:18.934Z,41.80
2018-07-28T04:51:50.797Z,42.00
2018-07-28T04:54:22.893Z,42.10
2018-07-28T04:56:54.443Z,42.20
2018-07-28T04:59:26.067Z,42.20
2018-07-28T05:01:57.923Z,42.20
2018-07-28T05:04:29.456Z,42.40
2018-07-28T05:07:01.012Z,42.00
2018-07-28T05:09:32.499Z,42.60
2018-07-28T05:12:04.108Z,42.60
2018-07-28T05:14:35.710Z,42.70
2018-07-28T05:17:07.793Z,42.70
2018-07-28T05:19:39.249Z,43.40
2018-07-28T05:22:10.897Z,43.10
2018-07-28T05:24:42.895Z,43.00
2018-07-28T05:27:14.830Z,43.10
2018-07-28T05:29:47.829Z,43.20
2018-07-28T05:32:20.673Z,43.30
2018-07-28T05:34:52.702Z,43.30
2018-07-28T05:37:24.659Z,43.40
2018-07-28T05:39:58.301Z,43.60
2018-07-28T05:42:30.484Z,43.70
2018-07-28T05:45:02.538Z,43.60
2018-07-28T05:47:34.377Z,43.70
2018-07-28T05:50:08.329Z,43.60
2018-07-28T05:52:40.386Z,43.70
2018-07-28T05:55:11.889Z,43.80
2018-07-28T05:57:43.317Z,43.80
2018-07-28T06:00:15.143Z,43.60
2018-07-28T06:02:46.789Z,43.60
2018-07-28T06:05:18.516Z,43.80
2018-07-28T06:07:49.954Z,43.80
2018-07-28T06:10:21.563Z,43.70
2018-07-28T06:12:53.273Z,44.10
2018-07-28T06:15:24.997Z,43.80
2018-07-28T06:17:56.980Z,43.90
2018-07-28T06:20:28.475Z,43.90
2018-07-28T06:23:00.077Z,43.90
2018-07-28T06:25:31.542Z,43.90
2018-07-28T06:30:33.995Z,43.90
2018-07-28T06:33:05.809Z,44.20
2018-07-28T06:35:37.588Z,44.10
2018-07-28T06:38:09.339Z,44.10
2018-07-28T06:40:40.943Z,43.70
2018-07-28T06:43:12.572Z,44.30
2018-07-28T06:45:44.172Z,44.50
2018-07-28T06:48:15.975Z,45.40
2018-07-28T06:50:47.613Z,46.10
2018-07-28T06:53:19.150Z,47.30
2018-07-28T06:55:50.578Z,47.00
2018-07-28T06:58:22.464Z,47.60
2018-07-28T07:00:55.622Z,48.20
2018-07-28T07:03:33.355Z,48.20
2018-07-28T07:06:06.615Z,48.80
2018-07-28T07:08:38.313Z,49.20
2018-07-28T07:11:09.814Z,49.20
2018-07-28T07:13:42.042Z,49.60
2018-07-28T07:16:13.486Z,50.30
2018-07-28T07:18:44.958Z,50.50
2018-07-28T07:21:16.836Z,50.20
2018-07-28T07:23:48.791Z,50.50
2018-07-28T07:26:20.392Z,50.60
2018-07-28T07:28:51.965Z,51.00
2018-07-28T07:31:23.686Z,51.60
2018-07-28T07:33:56.457Z,51.70
2018-07-28T07:36:28.045Z,52.70
2018-07-28T07:38:59.577Z,52.70
2018-07-28T07:41:31.081Z,53.00
2018-07-28T07:46:34.222Z,53.10
2018-07-28T07:49:05.867Z,52.90
2018-07-28T07:51:37.781Z,52.60
2018-07-28T07:54:09.245Z,52.80
2018-07-28T07:56:40.737Z,52.30
2018-07-28T07:59:12.397Z,52.40
2018-07-28T08:01:44.616Z,52.50
2018-07-28T08:04:16.157Z,52.40
2018-07-28T08:06:47.943Z,52.50
2018-07-28T08:09:19.762Z,52.40
2018-07-28T08:11:51.592Z,53.00
2018-07-28T08:14:23.210Z,53.00
2018-07-28T08:16:54.841Z,53.00
2018-07-28T08:19:26.640Z,52.90
2018-07-28T08:21:58.656Z,53.20
2018-07-28T08:24:30.182Z,53.30
2018-07-28T08:27:02.228Z,53.80
2018-07-28T08:29:34.179Z,54.00
2018-07-28T08:34:37.320Z,53.40
2018-07-28T08:37:09.001Z,54.10
2018-07-28T08:39:41.516Z,53.50
2018-07-28T08:42:14.210Z,53.60
2018-07-28T08:44:46.125Z,54.00
2018-07-28T08:47:17.980Z,53.50
2018-07-28T08:49:49.669Z,53.50
2018-07-28T08:52:21.366Z,53.70
2018-07-28T08:54:52.975Z,53.60
2018-07-28T08:57:24.932Z,53.30
2018-07-28T08:59:56.509Z,53.10
2018-07-28T09:02:27.961Z,53.30
2018-07-28T09:04:59.632Z,53.10
2018-07-28T09:07:31.564Z,52.90
2018-07-28T09:10:03.467Z,52.60
2018-07-28T09:12:35.061Z,52.60
2018-07-28T09:15:09.127Z,52.70
2018-07-28T09:17:41.192Z,53.00
2018-07-28T09:20:12.987Z,52.80
2018-07-28T09:22:44.793Z,52.80
2018-07-28T09:25:16.584Z,52.60
2018-07-28T09:27:48.182Z,52.50
2018-07-28T09:30:20.255Z,52.40
2018-07-28T09:32:52.287Z,52.40
2018-07-28T09:35:24.057Z,52.40
2018-07-28T09:37:55.681Z,52.40
2018-07-28T09:40:27.262Z,52.60
2018-07-28T09:42:58.852Z,52.40
2018-07-28T09:45:30.218Z,52.40
2018-07-28T09:48:01.920Z,51.20
2018-07-28T09:50:33.718Z,52.70
2018-07-28T09:53:05.920Z,52.90
2018-07-28T09:55:37.390Z,53.00
2018-07-28T09:58:09.649Z,52.50
2018-07-28T10:03:19.167Z,52.00
2018-07-28T10:05:51.497Z,51.50
2018-07-28T10:08:23.793Z,51.10
2018-07-28T10:10:55.886Z,50.70
2018-07-28T10:15:59.928Z,50.50
2018-07-28T10:18:32.121Z,50.30
2018-07-28T10:21:04.878Z,49.70
2018-07-28T10:23:36.934Z,49.50
2018-07-28T10:26:09.249Z,49.50
2018-07-28T10:28:41.381Z,49.80
2018-07-28T10:33:45.284Z,50.00
2018-07-28T10:36:17.318Z,49.60
2018-07-28T10:38:49.527Z,50.00
2018-07-28T10:41:21.556Z,50.20
2018-07-28T10:43:53.663Z,50.30
2018-07-28T10:48:57.564Z,49.60
2018-07-28T10:51:30.245Z,49.20
2018-07-28T10:54:02.487Z,48.40
2018-07-28T10:56:34.865Z,47.80
2018-07-28T10:59:06.951Z,47.60
2018-07-28T11:01:39.691Z,47.90
2018-07-28T11:04:11.964Z,47.70
2018-07-28T11:06:44.203Z,47.60
2018-07-28T11:09:16.363Z,48.30
2018-07-28T11:11:48.605Z,48.80
2018-07-28T11:14:20.810Z,48.90
2018-07-28T11:19:24.741Z,48.60
2018-07-28T11:21:57.098Z,48.50
2018-07-28T11:24:29.823Z,47.30
2018-07-28T11:27:02.008Z,46.80
2018-07-28T11:29:34.179Z,46.10
2018-07-28T11:32:23.157Z,45.30
2018-07-28T11:35:12.258Z,45.10
2018-07-28T11:38:08.600Z,44.30
2018-07-28T11:40:57.514Z,43.30
2018-07-28T11:43:46.621Z,42.40
2018-07-28T11:46:18.928Z,41.50
2018-07-28T11:48:51.476Z,41.20
2018-07-28T11:51:23.629Z,39.90
2018-07-28T11:53:56.817Z,39.80
2018-07-28T11:56:30.998Z,38.40
2018-07-28T11:59:03.178Z,38.20
2018-07-28T12:01:35.311Z,37.10
2018-07-28T12:04:07.592Z,36.70
2018-07-28T12:06:39.561Z,36.60
2018-07-28T12:09:11.938Z,36.80
2018-07-28T12:11:44.312Z,36.70
2018-07-28T12:14:16.470Z,36.70
2018-07-28T12:16:48.566Z,36.80
2018-07-28T12:19:20.817Z,37.30
2018-07-28T12:24:24.752Z,37.60
2018-07-28T12:26:57.337Z,37.80
2018-07-28T12:29:29.554Z,37.80
2018-07-28T12:32:01.781Z,37.30
2018-07-28T12:34:34.097Z,36.10
2018-07-28T12:37:07.040Z,36.00
2018-07-28T12:39:45.879Z,35.60
2018-07-28T12:42:17.983Z,35.30
2018-07-28T12:44:50.099Z,35.00
2018-07-28T12:47:22.591Z,34.00
2018-07-28T12:49:54.733Z,33.40
2018-07-28T12:52:27.270Z,33.40
2018-07-28T12:55:01.202Z,33.00
2018-07-28T12:57:33.494Z,32.90
2018-07-28T13:00:06.362Z,32.50
2018-07-28T13:02:38.508Z,32.50
2018-07-28T13:05:10.754Z,32.30
2018-07-28T13:07:43.191Z,32.90
2018-07-28T13:10:15.476Z,33.50
2018-07-28T13:12:48.205Z,33.50
2018-07-28T13:15:20.300Z,33.30
2018-07-28T13:17:52.587Z,33.20
2018-07-28T13:20:25.241Z,33.00
2018-07-28T13:22:57.397Z,33.60
2018-07-28T13:25:29.653Z,33.80
2018-07-28T13:28:02.135Z,33.90
2018-07-28T13:30:34.527Z,34.10
2018-07-28T13:33:06.860Z,34.00
2018-07-28T13:35:39.149Z,33.70
2018-07-28T13:38:11.380Z,33.60
2018-07-28T13:40:44.098Z,33.00
2018-07-28T13:43:16.148Z,32.20
2018-07-28T13:45:48.425Z,32.20
2018-07-28T13:48:22.022Z,31.80
2018-07-28T13:50:54.220Z,31.70
2018-07-28T13:53:26.512Z,31.60
2018-07-28T13:55:59.377Z,32.00
2018-07-28T13:58:32.020Z,32.10
2018-07-28T14:03:35.839Z,32.10
2018-07-28T14:06:08.928Z,32.10
2018-07-28T14:08:41.431Z,31.90
2018-07-28T14:11:13.899Z,31.70
2018-07-28T14:13:46.302Z,31.90
2018-07-28T14:16:18.394Z,32.10
2018-07-28T14:18:50.616Z,32.20
2018-07-28T14:21:22.821Z,31.90
2018-07-28T14:23:54.962Z,32.30
2018-07-28T14:26:27.537Z,32.70
2018-07-28T14:28:59.833Z,32.50
2018-07-28T14:34:04.020Z,33.20
2018-07-28T14:36:36.089Z,33.20
2018-07-28T14:39:09.565Z,33.20
2018-07-28T14:44:22.440Z,33.30
2018-07-28T14:46:55.019Z,33.50
2018-07-28T14:49:27.193Z,33.80
2018-07-28T14:51:59.266Z,33.80
2018-07-28T14:54:31.464Z,33.80
2018-07-28T14:57:03.769Z,34.00
2018-07-28T14:59:36.045Z,34.10
2018-07-28T15:02:08.634Z,34.10
2018-07-28T15:04:40.717Z,34.00
2018-07-28T15:07:12.965Z,34.10
2018-07-28T15:09:45.142Z,34.20
2018-07-28T15:12:17.333Z,34.00
2018-07-28T15:14:49.804Z,34.00
2018-07-28T15:17:22.150Z,34.00
2018-07-28T15:22:25.908Z,34.00
2018-07-28T15:24:58.016Z,34.00
2018-07-28T15:27:30.145Z,34.00
2018-07-28T15:30:02.116Z,34.30
2018-07-28T15:32:34.489Z,34.00
2018-07-28T15:35:06.739Z,33.90
2018-07-28T15:37:38.816Z,33.60
2018-07-28T15:40:12.546Z,33.50
2018-07-28T15:42:45.001Z,33.60
2018-07-28T15:45:17.121Z,33.80
2018-07-28T15:47:49.533Z,34.20
2018-07-28T15:50:21.724Z,34.10
2018-07-28T15:52:54.528Z,34.00
2018-07-28T15:55:26.667Z,34.10
2018-07-28T15:57:58.869Z,33.80
2018-07-28T16:00:31.077Z,33.70
2018-07-28T16:03:03.561Z,33.60
2018-07-28T16:05:36.389Z,33.40
2018-07-28T16:08:08.540Z,33.70
2018-07-28T16:10:40.766Z,33.60
2018-07-28T16:13:12.942Z,33.40
2018-07-28T16:15:45.025Z,33.50
2018-07-28T16:18:17.355Z,33.80
2018-07-28T16:20:49.911Z,34.30
2018-07-28T16:23:22.190Z,34.90
2018-07-28T16:25:55.096Z,35.20
2018-07-28T16:28:27.635Z,35.40
2018-07-28T16:30:59.698Z,35.40
2018-07-28T16:33:32.306Z,35.50
2018-07-28T16:36:04.934Z,35.60
2018-07-28T16:38:37.150Z,35.60
2018-07-28T16:41:09.801Z,35.70
2018-07-28T16:43:41.897Z,36.00
2018-07-28T16:46:14.119Z,36.20
2018-07-28T16:48:46.335Z,36.40
2018-07-28T16:51:18.781Z,36.60
2018-07-28T16:53:50.961Z,36.70
2018-07-28T16:56:23.155Z,36.70
2018-07-28T16:58:55.342Z,36.70
2018-07-28T17:01:28.093Z,36.90
2018-07-28T17:04:00.787Z,36.90
2018-07-28T17:09:06.864Z,37.10
2018-07-28T17:11:39.204Z,37.00
2018-07-28T17:14:11.489Z,36.90
2018-07-28T17:16:43.898Z,36.90
2018-07-28T17:21:47.884Z,36.70
2018-07-28T17:24:19.873Z,36.50
2018-07-28T17:26:53.094Z,36.40
2018-07-28T17:29:25.241Z,36.30
2018-07-28T17:31:57.279Z,36.40
2018-07-28T17:34:29.342Z,36.30
2018-07-28T17:37:01.408Z,36.20
2018-07-28T17:39:33.499Z,36.30
2018-07-28T17:42:05.756Z,36.40
2018-07-28T17:44:37.906Z,36.30
2018-07-28T17:47:10.213Z,36.10
2018-07-28T17:54:45.750Z,36.10
2018-07-28T17:57:17.941Z,35.80
2018-07-28T17:59:50.402Z,35.90
2018-07-28T18:02:22.776Z,35.80
2018-07-28T18:04:54.880Z,35.90
2018-07-28T18:07:27.033Z,36.00
2018-07-28T18:09:59.446Z,35.80
2018-07-28T18:15:03.573Z,36.00
2018-07-28T18:17:35.363Z,36.00
2018-07-28T18:20:08.406Z,36.00
2018-07-28T18:22:40.695Z,36.10
2018-07-28T18:25:12.695Z,36.10
2018-07-28T18:27:44.948Z,36.20
2018-07-28T18:32:49.442Z,35.90
2018-07-28T18:35:20.982Z,35.90
2018-07-28T18:37:53.067Z,35.60
2018-07-28T18:40:25.226Z,35.50
2018-07-28T18:42:57.252Z,35.60
2018-07-28T18:45:29.387Z,35.60
2018-07-28T18:48:02.392Z,35.40
2018-07-28T18:50:34.593Z,35.40
2018-07-28T18:53:06.479Z,35.90
2018-07-28T18:55:38.050Z,35.30
2018-07-28T18:58:09.574Z,35.30
2018-07-28T19:00:42.003Z,35.30
2018-07-28T19:03:13.716Z,35.30
2018-07-28T19:05:45.374Z,35.60
2018-07-28T19:08:17.745Z,35.30
2018-07-28T19:10:51.650Z,35.30
2018-07-28T19:13:28.750Z,35.10
2018-07-28T19:18:36.616Z,35.10
2018-07-28T19:21:08.137Z,34.80
2018-07-28T19:23:44.799Z,34.90
2018-07-28T19:26:17.805Z,34.60
2018-07-28T19:28:54.544Z,34.60
2018-07-28T19:31:26.204Z,34.50
2018-07-28T19:33:57.962Z,34.60
2018-07-28T19:36:34.712Z,34.70
2018-07-28T19:39:09.730Z,34.90
2018-07-28T19:41:46.449Z,35.80
2018-07-28T19:44:17.919Z,36.70
2018-07-28T19:46:49.542Z,37.10
2018-07-28T19:51:52.717Z,38.60
2018-07-28T19:54:24.842Z,38.20
2018-07-28T19:56:56.306Z,38.40
2018-07-28T19:59:27.911Z,38.50
2018-07-28T20:01:59.462Z,38.60
2018-07-28T20:04:31.094Z,38.70
2018-07-28T20:07:02.599Z,38.80
2018-07-28T20:09:34.195Z,39.00
2018-07-28T20:12:06.485Z,39.10
2018-07-28T20:14:37.997Z,39.10
2018-07-28T20:19:40.637Z,39.30
2018-07-28T20:22:12.708Z,39.50
2018-07-28T20:24:44.214Z,39.50
2018-07-28T20:27:15.864Z,39.60
2018-07-28T20:29:47.425Z,39.80
2018-07-28T20:32:18.940Z,39.80
2018-07-28T20:34:50.436Z,39.80
2018-07-28T20:37:21.987Z,39.80
2018-07-28T20:39:53.734Z,40.00
2018-07-28T20:42:25.410Z,39.80
2018-07-28T20:44:56.940Z,39.80
2018-07-28T20:47:28.640Z,39.70
2018-07-28T20:52:31.413Z,40.30
2018-07-28T20:55:03.143Z,39.60
2018-07-28T20:57:34.875Z,39.80
2018-07-28T21:00:06.982Z,39.80
2018-07-28T21:02:39.115Z,40.00
2018-07-28T21:05:10.654Z,40.10
2018-07-28T21:07:42.216Z,40.00
2018-07-28T21:10:14.113Z,40.10
2018-07-28T21:12:45.876Z,40.10
2018-07-28T21:15:17.332Z,40.10
2018-07-28T21:17:49.028Z,40.10
2018-07-28T21:20:21.280Z,40.20
2018-07-28T21:22:52.935Z,40.20
2018-07-28T21:25:24.613Z,40.30
2018-07-28T21:27:56.308Z,40.30
2018-07-28T21:30:28.041Z,40.20
2018-07-28T21:32:59.651Z,40.20
2018-07-28T21:35:31.422Z,40.10
2018-07-28T21:38:03.041Z,40.10
2018-07-28T21:40:35.272Z,40.00
2018-07-28T21:43:07.536Z,40.00
2018-07-28T21:45:39.137Z,40.00
2018-07-28T21:48:37.943Z,39.90
2018-07-28T21:51:13.342Z,39.90
2018-07-28T21:53:46.107Z,39.80
2018-07-28T21:56:21.733Z,39.70
2018-07-28T21:58:54.889Z,39.80
2018-07-28T22:01:26.818Z,39.80
2018-07-28T22:03:58.634Z,39.90
2018-07-28T22:06:31.065Z,39.90
2018-07-28T22:09:02.891Z,39.90
2018-07-28T22:11:34.480Z,40.00
2018-07-28T22:14:06.395Z,40.30
2018-07-28T22:16:38.581Z,40.10
2018-07-28T22:19:10.691Z,40.10
2018-07-28T22:21:42.689Z,40.10
2018-07-28T22:24:14.516Z,40.20
2018-07-28T22:26:46.090Z,40.20
2018-07-28T22:29:17.867Z,40.20
2018-07-28T22:31:49.399Z,40.30
2018-07-28T22:34:21.041Z,41.00
2018-07-28T22:36:52.612Z,40.40
2018-07-28T22:39:24.288Z,40.30
2018-07-28T22:41:56.053Z,40.30
2018-07-28T22:44:27.515Z,40.50
2018-07-28T22:46:59.457Z,40.60
2018-07-28T22:49:30.922Z,40.60
2018-07-28T22:52:02.495Z,40.50
2018-07-28T22:54:34.042Z,40.50
2018-07-28T22:57:05.681Z,40.60
2018-07-28T22:59:37.337Z,40.50
2018-07-28T23:04:39.856Z,40.50
2018-07-28T23:07:11.730Z,40.40
2018-07-28T23:09:43.364Z,40.40
2018-07-28T23:14:45.933Z,40.50
2018-07-28T23:17:17.583Z,40.60
2018-07-28T23:19:49.564Z,40.20
2018-07-28T23:22:21.261Z,40.60
2018-07-28T23:24:52.933Z,40.70
2018-07-28T23:27:24.640Z,40.70
2018-07-28T23:29:56.304Z,40.70
2018-07-28T23:32:27.862Z,40.70
2018-07-28T23:34:59.466Z,40.80
2018-07-28T23:37:31.097Z,40.90
2018-07-28T23:40:02.655Z,40.90
2018-07-28T23:45:05.834Z,41.00
2018-07-28T23:47:37.483Z,41.00
2018-07-28T23:50:09.044Z,41.10
2018-07-28T23:52:40.736Z,41.10
2018-07-28T23:55:12.958Z,40.70
2018-07-28T23:57:47.386Z,41.40
